createdAt,value
2023-03-02T00:01:12.547Z,96989.03
2023-03-02T00:04:22.901Z,96994.31
2023-03-02T00:07:26.126Z,96989.34
2023-03-02T00:10:22.995Z,96978.84
2023-03-02T00:13:20.354Z,96987.91
2023-03-02T00:16:17.409Z,96980.81
2023-03-02T00:19:14.307Z,96977.47
2023-03-02T00:22:11.313Z,96970.28
2023-03-02T00:25:09.528Z,96973.09
2023-03-02T00:28:06.437Z,96959.41
2023-03-02T00:31:06.778Z,96964.53
2023-03-02T00:34:04.160Z,96972.06
2023-03-02T00:37:01.203Z,96960.06
2023-03-02T00:39:58.106Z,96966.53
2023-03-02T00:42:55.100Z,96966.56
2023-03-02T00:45:51.960Z,96957.00
2023-03-02T00:48:49.499Z,96965.16
2023-03-02T00:51:46.375Z,96964.84
2023-03-02T00:54:43.324Z,96960.22
2023-03-02T00:57:40.228Z,96956.09
2023-03-02T01:00:37.956Z,96961.28
2023-03-02T01:03:35.684Z,96955.41
2023-03-02T01:06:33.040Z,96948.69
2023-03-02T01:09:30.649Z,96944.28
2023-03-02T01:12:27.487Z,96934.66
2023-03-02T01:15:24.498Z,96931.25
2023-03-02T01:18:21.325Z,96940.03
2023-03-02T01:21:18.167Z,96934.56
2023-03-02T01:24:15.055Z,96931.47
2023-03-02T01:27:12.107Z,96935.69
2023-03-02T01:30:10.166Z,96927.91
2023-03-02T01:33:06.996Z,96924.94
2023-03-02T01:36:04.311Z,96915.72
2023-03-02T01:39:01.280Z,96930.16
2023-03-02T01:41:58.122Z,96921.38
2023-03-02T01:44:57.179Z,96925.78
2023-03-02T01:47:54.145Z,96922.66
2023-03-02T01:50:52.313Z,96930.28
2023-03-02T01:53:55.210Z,96926.38
2023-03-02T01:56:58.936Z,96924.50
2023-03-02T02:00:08.320Z,96927.47
2023-03-02T02:03:26.221Z,96926.59
2023-03-02T02:06:33.897Z,96925.59
2023-03-02T02:09:41.680Z,96920.69
2023-03-02T02:12:38.782Z,96927.34
2023-03-02T02:15:35.759Z,96924.63
2023-03-02T02:18:35.856Z,96917.63
2023-03-02T02:21:32.738Z,96920.56
2023-03-02T02:24:38.150Z,96917.84
2023-03-02T02:27:36.016Z,96923.53
2023-03-02T02:30:32.886Z,96916.91
2023-03-02T02:33:32.213Z,96925.66
2023-03-02T02:36:35.355Z,96911.16
2023-03-02T02:39:39.041Z,96908.53
2023-03-02T02:42:44.717Z,96899.84
2023-03-02T02:45:41.915Z,96900.63
2023-03-02T02:48:39.574Z,96893.47
2023-03-02T02:51:36.780Z,96897.41
2023-03-02T02:54:36.204Z,96900.03
2023-03-02T02:57:33.207Z,96898.03
2023-03-02T03:00:30.100Z,96894.84
2023-03-02T03:03:32.224Z,96883.81
2023-03-02T03:06:42.331Z,96881.25
2023-03-02T03:09:39.541Z,96886.66
2023-03-02T03:12:38.777Z,96880.03
2023-03-02T03:15:35.632Z,96870.53
2023-03-02T03:18:32.459Z,96880.03
2023-03-02T03:21:29.296Z,96872.38
2023-03-02T03:24:28.455Z,96851.31
2023-03-02T03:27:25.326Z,96867.09
2023-03-02T03:30:22.641Z,96857.88
2023-03-02T03:33:19.485Z,96850.16
2023-03-02T03:36:17.965Z,96849.00
2023-03-02T03:39:16.225Z,96838.88
2023-03-02T03:42:13.333Z,96840.19
2023-03-02T03:45:10.369Z,96840.78
2023-03-02T03:48:07.461Z,96839.78
2023-03-02T03:51:04.793Z,96850.44
2023-03-02T03:54:08.078Z,96840.38
2023-03-02T03:57:05.028Z,96840.16
2023-03-02T04:00:02.222Z,96836.16
2023-03-02T04:02:59.223Z,96832.88
2023-03-02T04:05:56.159Z,96829.84
2023-03-02T04:08:53.019Z,96823.72
2023-03-02T04:11:53.121Z,96825.94
2023-03-02T04:14:49.958Z,96832.94
2023-03-02T04:17:46.869Z,96826.91
2023-03-02T04:20:43.692Z,96827.94
2023-03-02T04:23:40.567Z,96831.47
2023-03-02T04:26:39.936Z,96828.16
2023-03-02T04:29:37.116Z,96834.22
2023-03-02T04:32:34.193Z,96830.91
2023-03-02T04:35:31.110Z,96831.22
2023-03-02T04:38:29.559Z,96836.69
2023-03-02T04:41:26.460Z,96835.59
2023-03-02T04:44:23.343Z,96842.44
2023-03-02T04:47:20.169Z,96848.81
2023-03-02T04:50:17.012Z,96852.00
2023-03-02T04:53:14.074Z,96844.44
2023-03-02T04:56:10.887Z,96841.06
2023-03-02T04:59:07.922Z,96846.53
2023-03-02T05:02:05.114Z,96839.66
2023-03-02T05:05:02.017Z,96842.19
2023-03-02T05:08:00.102Z,96851.66
2023-03-02T05:10:58.231Z,96855.41
2023-03-02T05:14:02.896Z,96847.53
2023-03-02T05:16:59.817Z,96844.59
2023-03-02T05:19:56.747Z,96846.50
2023-03-02T05:22:55.891Z,96851.00
2023-03-02T05:25:56.002Z,96853.13
2023-03-02T05:28:54.114Z,96855.94
2023-03-02T05:31:51.199Z,96862.31
2023-03-02T05:34:48.148Z,96853.47
2023-03-02T05:37:45.062Z,96865.59
2023-03-02T05:40:45.204Z,96865.22
2023-03-02T05:43:42.068Z,96866.13
2023-03-02T05:46:39.461Z,96871.94
2023-03-02T05:49:36.271Z,96871.16
2023-03-02T05:52:33.111Z,96871.63
2023-03-02T05:55:30.566Z,96875.72
2023-03-02T05:58:27.984Z,96875.00
2023-03-02T06:01:24.831Z,96878.47
2023-03-02T06:04:21.877Z,96873.63
2023-03-02T06:07:18.697Z,96880.06
2023-03-02T06:10:15.616Z,96887.34
2023-03-02T06:13:12.502Z,96881.72
2023-03-02T06:16:09.841Z,96887.34
2023-03-02T06:19:06.923Z,96891.72
2023-03-02T06:22:03.768Z,96895.88
2023-03-02T06:25:00.590Z,96894.19
2023-03-02T06:27:57.528Z,96903.47
2023-03-02T06:30:54.421Z,96898.28
2023-03-02T06:33:51.293Z,96896.81
2023-03-02T06:36:48.171Z,96904.03
2023-03-02T06:39:45.012Z,96893.06
2023-03-02T06:42:43.200Z,96898.97
2023-03-02T06:45:40.246Z,96890.97
2023-03-02T06:48:37.154Z,96883.28
2023-03-02T06:51:34.584Z,96897.22
2023-03-02T06:54:31.551Z,96896.56
2023-03-02T06:57:34.234Z,96899.28
2023-03-02T07:00:31.230Z,96902.84
2023-03-02T07:03:28.134Z,96894.50
2023-03-02T07:06:25.175Z,96898.16
2023-03-02T07:09:22.845Z,96899.41
2023-03-02T07:12:19.728Z,96900.47
2023-03-02T07:15:17.462Z,96893.72
2023-03-02T07:18:14.455Z,96892.59
2023-03-02T07:21:11.258Z,96889.97
2023-03-02T07:24:08.324Z,96890.13
2023-03-02T07:27:05.209Z,96884.84
2023-03-02T07:30:02.063Z,96896.84
2023-03-02T07:32:58.955Z,96895.78
2023-03-02T07:35:55.881Z,96891.63
2023-03-02T07:38:52.811Z,96893.38
2023-03-02T07:41:49.643Z,96895.88
2023-03-02T07:44:46.560Z,96895.69
2023-03-02T07:47:43.443Z,96891.41
2023-03-02T07:50:40.273Z,96898.97
2023-03-02T07:53:37.452Z,96887.63
2023-03-02T07:56:34.298Z,96891.06
2023-03-02T07:59:31.172Z,96891.53
2023-03-02T08:02:28.457Z,96882.16
2023-03-02T08:05:25.384Z,96887.28
2023-03-02T08:08:22.242Z,96881.69
2023-03-02T08:11:19.349Z,96883.97
2023-03-02T08:14:16.178Z,96890.59
2023-03-02T08:17:12.991Z,96897.28
2023-03-02T08:20:10.446Z,96902.84
2023-03-02T08:23:07.736Z,96895.81
2023-03-02T08:26:04.872Z,96889.63
2023-03-02T08:29:01.862Z,96888.16
2023-03-02T08:31:59.079Z,96893.72
2023-03-02T08:34:56.062Z,96886.53
2023-03-02T08:37:52.942Z,96880.81
2023-03-02T08:40:51.485Z,96870.56
2023-03-02T08:43:49.352Z,96861.31
2023-03-02T08:46:46.329Z,96849.81
2023-03-02T08:49:43.167Z,96854.19
2023-03-02T08:52:39.983Z,96850.00
2023-03-02T08:55:37.435Z,96837.50
2023-03-02T08:58:34.299Z,96832.22
2023-03-02T09:01:35.277Z,96842.00
2023-03-02T09:04:32.640Z,96827.81
2023-03-02T09:07:30.564Z,96835.00
2023-03-02T09:10:27.461Z,96824.50
2023-03-02T09:13:24.321Z,96820.09
2023-03-02T09:16:21.357Z,96817.91
2023-03-02T09:19:18.245Z,96809.81
2023-03-02T09:22:15.074Z,96813.25
2023-03-02T09:25:11.893Z,96809.22
2023-03-02T09:28:08.828Z,96808.28
2023-03-02T09:31:08.251Z,96810.97
2023-03-02T09:34:05.412Z,96810.28
2023-03-02T09:37:02.444Z,96803.34
2023-03-02T09:39:59.267Z,96800.94
2023-03-02T09:43:29.028Z,96796.16
2023-03-02T09:46:54.365Z,96789.63
2023-03-02T09:50:17.243Z,96791.88
2023-03-02T09:53:52.221Z,96780.28
2023-03-02T09:56:54.959Z,96774.56
2023-03-02T10:00:18.632Z,96777.09
2023-03-02T10:03:23.768Z,96787.50
2023-03-02T10:06:20.682Z,96788.38
2023-03-02T10:09:17.593Z,96783.31
2023-03-02T10:13:02.209Z,96781.69
2023-03-02T10:15:59.067Z,96780.84
2023-03-02T10:19:20.159Z,96781.63
2023-03-02T10:22:38.545Z,96797.03
2023-03-02T10:25:50.386Z,96777.00
2023-03-02T10:29:18.974Z,96770.53
2023-03-02T10:32:24.302Z,96790.28
2023-03-02T10:35:25.646Z,96783.00
2023-03-02T10:38:25.091Z,96785.63
2023-03-02T10:41:39.985Z,96784.50
2023-03-02T10:44:42.535Z,96786.69
2023-03-02T10:47:39.380Z,96791.50
2023-03-02T10:50:37.346Z,96780.28
2023-03-02T10:53:34.216Z,96776.00
2023-03-02T10:56:32.291Z,96777.25
2023-03-02T10:59:43.728Z,96772.81
2023-03-02T11:02:51.032Z,96774.28
2023-03-02T11:05:47.915Z,96770.38
2023-03-02T11:08:44.816Z,96774.38
2023-03-02T11:11:58.923Z,96765.63
2023-03-02T11:15:25.911Z,96767.63
2023-03-02T11:18:40.559Z,96770.50
2023-03-02T11:21:55.501Z,96783.00
2023-03-02T11:24:58.470Z,96778.63
2023-03-02T11:28:31.797Z,96764.63
2023-03-02T11:31:48.272Z,96758.78
2023-03-02T11:35:00.981Z,96763.44
2023-03-02T11:38:27.355Z,96764.84
2023-03-02T11:41:34.681Z,96761.84
2023-03-02T11:44:31.756Z,96755.50
2023-03-02T11:47:31.641Z,96757.16
2023-03-02T11:50:28.652Z,96749.94
2023-03-02T11:53:36.667Z,96753.31
2023-03-02T11:56:41.137Z,96747.91
2023-03-02T11:59:39.007Z,96744.53
2023-03-02T12:02:35.856Z,96744.38
2023-03-02T12:05:37.779Z,96745.78
2023-03-02T12:08:43.970Z,96749.69
2023-03-02T12:11:45.863Z,96740.59
2023-03-02T12:14:43.586Z,96732.41
2023-03-02T12:17:40.454Z,96730.66
2023-03-02T12:20:41.469Z,96721.94
2023-03-02T12:23:59.573Z,96724.91
2023-03-02T12:27:05.337Z,96731.78
2023-03-02T12:30:32.536Z,96734.38
2023-03-02T12:33:29.405Z,96740.31
2023-03-02T12:36:34.832Z,96739.78
2023-03-02T12:40:10.283Z,96729.50
2023-03-02T12:43:23.618Z,96732.09
2023-03-02T12:46:33.634Z,96719.94
2023-03-02T12:49:51.080Z,96721.47
2023-03-02T12:53:02.938Z,96716.81
2023-03-02T12:55:59.826Z,96701.13
2023-03-02T12:58:56.694Z,96708.06
2023-03-02T13:02:11.833Z,96697.56
2023-03-02T13:05:09.279Z,96693.25
2023-03-02T13:08:24.237Z,96691.91
2023-03-02T13:11:33.172Z,96684.34
2023-03-02T13:14:30.582Z,96672.34
2023-03-02T13:17:31.630Z,96674.72
2023-03-02T13:20:29.989Z,96670.63
2023-03-02T13:23:29.468Z,96673.56
2023-03-02T13:26:32.049Z,96665.44
2023-03-02T13:29:31.733Z,96656.53
2023-03-02T13:32:41.178Z,96656.91
2023-03-02T13:35:38.456Z,96651.78
2023-03-02T13:38:37.802Z,96651.63
2023-03-02T13:41:37.079Z,96646.81
2023-03-02T13:44:35.536Z,96645.28
2023-03-02T13:47:32.386Z,96638.94
2023-03-02T13:50:32.159Z,96651.09
2023-03-02T13:53:34.680Z,96649.44
2023-03-02T13:56:38.097Z,96640.09
2023-03-02T13:59:36.685Z,96644.31
2023-03-02T14:02:33.589Z,96653.56
2023-03-02T14:05:33.489Z,96652.16
2023-03-02T14:08:30.667Z,96647.53
2023-03-02T14:11:34.246Z,96632.22
2023-03-02T14:14:39.865Z,96634.66
2023-03-02T14:17:36.732Z,96635.09
2023-03-02T14:20:33.551Z,96640.56
2023-03-02T14:23:30.460Z,96633.72
2023-03-02T14:26:44.031Z,96641.78
2023-03-02T14:29:41.040Z,96639.09
2023-03-02T14:32:37.907Z,96644.63
2023-03-02T14:35:36.055Z,96642.31
2023-03-02T14:38:33.296Z,96643.84
2023-03-02T14:41:31.545Z,96646.75
2023-03-02T14:44:28.506Z,96641.28
2023-03-02T14:47:25.357Z,96638.22
2023-03-02T14:50:22.288Z,96641.97
2023-03-02T14:53:29.125Z,96647.19
2023-03-02T14:56:26.232Z,96636.53
2023-03-02T14:59:23.098Z,96633.50
2023-03-02T15:02:25.933Z,96630.63
2023-03-02T15:05:23.305Z,96628.16
2023-03-02T15:08:22.325Z,96635.91
2023-03-02T15:11:19.279Z,96626.31
2023-03-02T15:14:16.220Z,96633.06
2023-03-02T15:17:13.210Z,96638.13
2023-03-02T15:20:16.198Z,96636.84
2023-03-02T15:23:13.098Z,96643.56
2023-03-02T15:26:11.498Z,96641.63
2023-03-02T15:29:08.648Z,96643.22
2023-03-02T15:32:05.698Z,96649.44
2023-03-02T15:35:04.040Z,96655.78
2023-03-02T15:38:02.619Z,96650.75
2023-03-02T15:41:04.536Z,96641.47
2023-03-02T15:44:01.431Z,96646.00
2023-03-02T15:47:00.563Z,96648.16
2023-03-02T15:49:57.462Z,96648.63
2023-03-02T15:52:54.350Z,96648.69
2023-03-02T15:55:51.280Z,96654.75
2023-03-02T15:58:50.219Z,96661.19
2023-03-02T16:01:47.457Z,96662.00
2023-03-02T16:04:44.881Z,96663.31
2023-03-02T16:07:41.874Z,96661.22
2023-03-02T16:10:39.290Z,96656.44
2023-03-02T16:13:36.181Z,96662.28
2023-03-02T16:16:33.294Z,96657.00
2023-03-02T16:19:30.265Z,96658.06
2023-03-02T16:22:27.131Z,96652.47
2023-03-02T16:25:24.881Z,96658.28
2023-03-02T16:28:21.746Z,96654.56
2023-03-02T16:31:20.643Z,96653.47
2023-03-02T16:34:17.606Z,96657.47
2023-03-02T16:37:14.547Z,96664.09
2023-03-02T16:40:12.229Z,96657.72
2023-03-02T16:43:10.987Z,96664.88
2023-03-02T16:46:07.877Z,96671.19
2023-03-02T16:49:05.547Z,96677.56
2023-03-02T16:52:02.358Z,96682.81
2023-03-02T16:54:59.240Z,96687.63
2023-03-02T16:57:56.074Z,96691.25
2023-03-02T17:00:53.565Z,96693.38
2023-03-02T17:03:51.455Z,96704.72
2023-03-02T17:07:00.557Z,96704.09
2023-03-02T17:09:58.315Z,96709.88
2023-03-02T17:12:55.451Z,96709.88
2023-03-02T17:15:52.709Z,96717.19
2023-03-02T17:18:49.520Z,96713.81
2023-03-02T17:21:46.350Z,96721.41
2023-03-02T17:24:43.243Z,96731.63
2023-03-02T17:27:40.067Z,96741.66
2023-03-02T17:30:36.918Z,96735.22
2023-03-02T17:33:34.401Z,96752.16
2023-03-02T17:36:36.610Z,96742.72
2023-03-02T17:39:33.661Z,96748.72
2023-03-02T17:42:30.716Z,96748.72
2023-03-02T17:45:28.843Z,96750.84
2023-03-02T17:48:26.686Z,96751.94
2023-03-02T17:51:26.135Z,96748.66
2023-03-02T17:54:23.057Z,96750.66
2023-03-02T17:57:22.608Z,96749.09
2023-03-02T18:00:22.614Z,96743.91
2023-03-02T18:03:19.784Z,96745.66
2023-03-02T18:06:18.933Z,96745.84
2023-03-02T18:09:16.011Z,96753.00
2023-03-02T18:12:13.003Z,96756.19
2023-03-02T18:15:12.420Z,96761.03
2023-03-02T18:18:09.589Z,96762.97
2023-03-02T18:21:06.984Z,96768.31
2023-03-02T18:24:04.306Z,96774.31
2023-03-02T18:27:01.177Z,96773.19
2023-03-02T18:29:58.554Z,96774.47
2023-03-02T18:32:55.377Z,96772.03
2023-03-02T18:35:52.480Z,96772.88
2023-03-02T18:38:52.982Z,96771.91
2023-03-02T18:41:49.969Z,96779.16
2023-03-02T18:44:46.805Z,96783.38
2023-03-02T18:47:46.106Z,96780.75
2023-03-02T18:50:43.784Z,96781.38
2023-03-02T18:53:41.037Z,96784.78
2023-03-02T18:56:40.516Z,96790.69
2023-03-02T18:59:37.857Z,96784.97
2023-03-02T19:02:34.777Z,96784.44
2023-03-02T19:05:31.629Z,96793.19
2023-03-02T19:08:28.801Z,96797.16
2023-03-02T19:11:26.056Z,96799.50
2023-03-02T19:14:23.039Z,96808.16
2023-03-02T19:17:19.877Z,96799.06
2023-03-02T19:20:17.833Z,96798.34
2023-03-02T19:23:15.830Z,96798.81
2023-03-02T19:26:12.686Z,96806.94
2023-03-02T19:29:09.514Z,96810.69
2023-03-02T19:32:08.300Z,96818.75
2023-03-02T19:35:05.955Z,96821.63
2023-03-02T19:38:02.896Z,96824.69
2023-03-02T19:41:01.944Z,96829.28
2023-03-02T19:43:59.108Z,96826.78
2023-03-02T19:46:55.993Z,96821.63
2023-03-02T19:49:52.811Z,96822.72
2023-03-02T19:52:52.467Z,96827.50
2023-03-02T19:55:51.502Z,96826.47
2023-03-02T19:58:50.223Z,96826.66
2023-03-02T20:01:49.312Z,96823.94
2023-03-02T20:04:46.843Z,96836.06
2023-03-02T20:07:43.769Z,96830.84
2023-03-02T20:10:49.338Z,96836.31
2023-03-02T20:13:46.217Z,96831.94
2023-03-02T20:16:43.233Z,96839.94
2023-03-02T20:19:40.113Z,96839.69
2023-03-02T20:22:37.048Z,96834.28
2023-03-02T20:25:34.659Z,96846.03
2023-03-02T20:28:33.034Z,96843.19
2023-03-02T20:31:33.247Z,96834.28
2023-03-02T20:34:31.574Z,96846.22
2023-03-02T20:37:28.586Z,96837.81
2023-03-02T20:40:26.289Z,96838.84
2023-03-02T20:43:23.221Z,96840.22
2023-03-02T20:46:29.326Z,96838.59
2023-03-02T20:49:30.196Z,96835.97
2023-03-02T20:52:27.463Z,96834.75
2023-03-02T20:55:26.936Z,96839.16
2023-03-02T20:58:23.984Z,96837.50
2023-03-02T21:01:23.621Z,96841.09
2023-03-02T21:04:22.564Z,96843.84
2023-03-02T21:07:19.545Z,96846.53
2023-03-02T21:10:22.720Z,96847.81
2023-03-02T21:13:22.435Z,96850.31
2023-03-02T21:16:28.185Z,96851.66
2023-03-02T21:19:25.730Z,96846.22
2023-03-02T21:22:22.718Z,96851.16
2023-03-02T21:25:20.225Z,96851.16
2023-03-02T21:28:17.150Z,96852.94
2023-03-02T21:31:18.192Z,96854.53
2023-03-02T21:34:16.076Z,96852.41
2023-03-02T21:37:13.066Z,96844.13
2023-03-02T21:40:17.161Z,96842.13
2023-03-02T21:43:15.935Z,96841.44
2023-03-02T21:46:15.405Z,96849.16
2023-03-02T21:49:17.640Z,96845.03
2023-03-02T21:52:14.495Z,96843.59
2023-03-02T21:55:13.305Z,96841.84
2023-03-02T21:58:10.561Z,96853.59
2023-03-02T22:01:07.431Z,96845.09
2023-03-02T22:04:04.767Z,96847.72
2023-03-02T22:07:01.678Z,96834.72
2023-03-02T22:09:58.588Z,96839.66
2023-03-02T22:13:13.492Z,96827.44
2023-03-02T22:16:18.182Z,96830.94
2023-03-02T22:19:27.828Z,96832.53
2023-03-02T22:22:27.708Z,96823.81
2023-03-02T22:25:24.541Z,96820.94
2023-03-02T22:28:27.981Z,96811.66
2023-03-02T22:31:24.821Z,96824.16
2023-03-02T22:34:31.251Z,96820.84
2023-03-02T22:37:32.962Z,96827.97
2023-03-02T22:40:33.767Z,96822.84
2023-03-02T22:43:35.660Z,96819.50
2023-03-02T22:46:32.509Z,96822.16
2023-03-02T22:49:29.960Z,96818.91
2023-03-02T22:52:39.224Z,96816.50
2023-03-02T22:55:43.250Z,96818.75
2023-03-02T22:58:47.225Z,96819.47
2023-03-02T23:01:45.788Z,96818.28
2023-03-02T23:04:43.212Z,96818.69
2023-03-02T23:07:40.087Z,96827.94
2023-03-02T23:10:36.920Z,96828.22
2023-03-02T23:13:40.129Z,96827.41
2023-03-02T23:16:37.135Z,96825.94
2023-03-02T23:19:34.241Z,96822.03
2023-03-02T23:22:31.620Z,96824.38
2023-03-02T23:25:28.440Z,96829.78
2023-03-02T23:28:25.284Z,96836.19
2023-03-02T23:31:22.294Z,96822.25
2023-03-02T23:34:19.240Z,96814.97
2023-03-02T23:37:16.299Z,96822.38
2023-03-02T23:40:13.437Z,96818.50
2023-03-02T23:43:10.256Z,96830.81
2023-03-02T23:46:07.422Z,96826.94
2023-03-02T23:49:04.282Z,96828.34
2023-03-02T23:52:01.117Z,96835.09
2023-03-02T23:54:57.964Z,96840.00
2023-03-02T23:57:54.813Z,96822.47
